• Join FlightAware (Why Join?)
  • Login
  • US Flag GB Flag 
15:54 EDT


 

Airport Tracker/Info


-or-


 

Live Flight TrackerFlight Track Log ✈ UAL4431 ✈ 19-Apr-2013 ✈ KCLE - KMSN

Flight Track Log - Related Links

Times and Time Zones

All times are in EDT time to prevent confusion due to time zone crossing. See the UAL4431 flight status page for this flight to view local times or setup timezone preferences in your user account.

Time Position Orientation Groundspeed Altitude Reporting Facility
EDT Latitude Longitude Course Direction KTS MPH feet Rate Location/Type
17:36 41.3919 -81.8783 261° West 146 168 2,000  Level Cleveland Center
17:37 41.3872 -81.9200 261° West 195 224 3,100 2,160 Climbing Cleveland Center
17:38 41.3781 -81.9917 260° West 210 242 5,600 2,460 Climbing Cleveland Center
17:38 41.3736 -82.0108 253° West 210 242 6,300 2,580 Climbing Cleveland Center
17:39 41.3686 -82.0661 263° West 217 250 8,200 2,340 Climbing Cleveland Center
17:40 41.3572 -82.1489 260° West 222 255 10,300 1,560 Climbing Cleveland Center
17:41 41.3456 -82.2456 261° West 244 281 11,400 1,140 Climbing Cleveland Center
17:42 41.3314 -82.3528 260° West 288 331 12,600 1,320 Climbing Cleveland Center
17:43 41.3169 -82.4631 260° West 312 359 14,100 1,560 Climbing Cleveland Center
17:44 41.3028 -82.5733 260° West 312 359 15,800 1,500 Climbing Cleveland Center
17:45 41.2883 -82.6694 259° West 312 359 17,200 1,620 Climbing Cleveland Center
17:46 41.2739 -82.7742 260° West 305 351 19,100 1,800 Climbing Cleveland Center
17:47 41.2594 -82.8758 259° West 294 338 20,800 1,560 Climbing Cleveland Center
17:48 41.2531 -82.9806 265° West 294 338 22,300 1,380 Climbing Cleveland Center
17:49 41.3178 -83.0825 310° West 307 353 23,600 1,140 Climbing Cleveland Center
17:50 41.3886 -83.1711 317° Northwest 339 390 24,600 1,140 Climbing Cleveland Center
17:51 41.4758 -83.2825 316° Northwest 369 425 25,900 1,140 Climbing Cleveland Center
17:52 41.5589 -83.3831 318° Northwest 392 451 26,900 1,020 Climbing Cleveland Center
17:53 41.6292 -83.4919 311° West 397 457 28,000 1,080 Climbing Cleveland Center
17:54 41.6617 -83.6072 291° West 364 419 29,100 1,020 Climbing Cleveland Center
17:55 41.6958 -83.7258 291° West 351 404 30,100 1,020 Climbing Cleveland Center
17:56 41.7300 -83.8469 291° West 345 397 31,200 900 Climbing Cleveland Center
17:57 41.7661 -83.9686 292° West 345 397 32,000 360 Climbing Cleveland Center
17:58 41.8039 -84.1017 291° West 363 418 32,000  Level Cleveland Center
17:59 41.8469 -84.2517 291° West 385 443 32,000  Level Cleveland Center
18:00 41.8867 -84.3822 292° West 402 463 32,000  Level Cleveland Center
18:01 41.9578 -84.6394 290° West 385 443 32,000  Level Chicago Center
18:03 41.9875 -84.7533 289° West 384 442 32,000  Level Chicago Center
18:04 42.0331 -84.9175 291° West 390 449 32,000  Level Chicago Center
18:05 42.0708 -85.0567 290° West 397 457 32,000  Level Chicago Center
18:06 42.1094 -85.1986 290° West 403 464 32,000  Level Chicago Center
18:07 42.1486 -85.3406 290° West 403 464 32,000  Level Chicago Center
18:08 42.1867 -85.4833 290° West 405 466 32,000  Level Chicago Center
18:09 42.2253 -85.6272 290° West 407 468 32,000  Level Chicago Center
18:10 42.2628 -85.7697 290° West 405 466 32,000  Level Chicago Center
18:11 42.3083 -85.9419 290° West 404 465 32,000  Level Chicago Center
18:12 42.3464 -86.0892 289° West 412 474 32,000  Level Chicago Center
18:13 42.3853 -86.2336 290° West 410 472 32,000  Level Chicago Center
18:14 42.4231 -86.3817 289° West 414 476 32,000  Level Chicago Center
18:15 42.4608 -86.5297 289° West 415 478 32,000  Level Chicago Center
18:16 42.5008 -86.6858 289° West 418 481 32,000  Level Chicago Center
18:17 42.5389 -86.8336 289° West 419 482 32,000  Level Chicago Center
18:18 42.5814 -87.0050 289° West 413 475 32,000  Level Chicago Center
18:19 42.6186 -87.1525 289° West 412 474 32,000  Level Chicago Center
18:20 42.6544 -87.3008 288° West 414 476 32,000 -780 Level Chicago Center
18:21 42.6950 -87.4633 289° West 414 476 30,400 -1,980 Descending Chicago Center
18:22 42.7317 -87.6103 289° West 411 473 28,000 -2,400 Descending Chicago Center
18:23 42.7672 -87.7589 288° West 411 473 25,500 -2,280 Descending Chicago Center
18:24 42.8019 -87.9014 288° West 400 460 23,400 -2,220 Descending Chicago Center
18:25 42.8361 -88.0428 288° West 393 452 21,000 -2,760 Descending Chicago Center
18:26 42.8744 -88.2008 288° West 378 435 17,700 -2,760 Descending Chicago Center
18:27 42.9044 -88.3281 288° West 356 410 15,300 -1,860 Descending Chicago Center
18:28 42.9336 -88.4481 288° West 338 389 13,900 -1,500 Descending Chicago Center
18:29 42.9608 -88.5672 287° West 329 379 12,300 -1,440 Descending Chicago Center
18:30 42.9894 -88.6847 288° West 325 374 11,000 -900 Descending Chicago Center
18:31 43.0044 -88.7922 281° West 308 354 10,500 -1,080 Descending Chicago Center
18:32 42.9842 -88.8842 253° West 258 297 8,800 -1,920 Descending Chicago Center
18:33 42.9622 -88.9847 253° West 241 277 6,600 -2,040 Descending Chicago Center
18:35 42.9525 -89.0683 261° West 229 264 4,600 -1,740 Descending Chicago Center
18:36 42.9472 -89.1483 265° West 217 250 3,100 -780 Descending Chicago Center
18:37 42.9428 -89.2269 266° West 211 243 3,000  Descending Chicago Center
18:38 42.9606 -89.2964 289° West 212 244 3,100  Climbing Chicago Center
18:39 43.0106 -89.3281 335° Northwest 203 234 3,000 -420 Descending Chicago Center
18:40 43.0692 -89.3486 346° North 192 221 2,300 -780 Descending Chicago Center
18:41 43.1056 -89.3428 North 154 177 1,400 -540 Descending Chicago Center
18:42 43.1392 -89.3408 North 149 171 1,300 -120 Descending Chicago Center